Yogi Berra — WDF2990 — position and weather

sailwx.info

Track history (hours):
 
Tides and Currents Weather Stations Pressure Air Temp Water Temp Dewpoint Dewpoint Depression Visibility Wind Speed Wind Dir Waves Ship Positions

Yogi Berra

Owner: PORT IMPERIAL FERRY, WEEHAWKEN, NJ. More information available from US FCC via Universal Licensing System and Coast Guard Vessel Documentation Center.

Last reported at 2018-Jul-16 14:09 UTC. Time now 2018-Jul-20 01:00 UTC.
Position N 40°46' W 074°01'.

Length 25 m; draft 2 m.

Type: Passenger vessel. MMSI: 367434220.

Date/timePositionNaut miles runAvg speedWind from/ knotsBaromVisibWave heightAir tempDewpointWater temp
2018-Jul-16 14:09N 40°46' W 074°01'1 0.1
2018-Jul-16 02:40N 40°45' W 074°01'319.0
2018-Jul-16 02:30N 40°42' W 074°01'2 3.9
2018-Jul-16 02:00N 40°40' W 074°01'2 4.6
2018-Jul-16 01:30N 40°42' W 074°00'1 2.7
2018-Jul-16 01:00N 40°41' W 074°01'1 1.7
2018-Jul-16 00:12N 40°42' W 074°00'0 2.2
2018-Jul-16 00:01N 40°42' W 074°00'4 7.4
2018-Jul-15 23:30N 40°38' W 074°02'4 8.0
2018-Jul-15 23:00N 40°42' W 074°00'0 0.3
2018-Jul-15 22:30N 40°42' W 073°60'4 7.1
2018-Jul-15 22:00N 40°39' W 074°02'2 4.5
2018-Jul-15 21:30N 40°41' W 074°01'1 2.2
2018-Jul-15 20:52N 40°42' W 073°60'2 4.2
2018-Jul-15 20:30N 40°41' W 074°01'1 2.3
2018-Jul-15 20:00N 40°40' W 074°01'3 4.8
2018-Jul-15 19:29N 40°42' W 074°00'1 1.4
2018-Jul-15 19:00N 40°42' W 074°00'3 6.6
2018-Jul-15 18:30N 40°39' W 074°02'4 8.2
2018-Jul-15 18:00N 40°42' W 073°60'0 0.6
2018-Jul-15 17:30N 40°42' W 074°00'4 7.1
2018-Jul-15 17:00N 40°39' W 074°02'2 4.2
2018-Jul-15 16:30N 40°41' W 074°01'1 2.8
2018-Jul-15 16:00N 40°42' W 074°00'1 2.7
2018-Jul-15 15:29N 40°41' W 074°01'0 1.0
2018-Jul-15 15:00N 40°41' W 074°01'2 3.6
2018-Jul-15 14:30N 40°42' W 074°00'1 1.1
2018-Jul-15 13:57N 40°42' W 074°00'4 7.9
2018-Jul-15 13:30N 40°38' W 074°02'4 7.1
2018-Jul-15 13:00N 40°42' W 074°00'0 1.0
2018-Jul-15 12:30N 40°42' W 074°00'4 8.0
2018-Jul-15 12:00N 40°38' W 074°02'4 7.3
2018-Jul-15 11:30N 40°42' W 074°00'1 1.0
2018-Jul-15 11:00N 40°41' W 074°01'3 6.4
2018-Jul-15 10:30N 40°38' W 074°02'815.9
2018-Jul-15 10:00N 40°46' W 074°01'0 0.0
2018-Jul-15 09:30N 40°46' W 074°01'0 0.0
2018-Jul-15 09:00N 40°46' W 074°01'0 0.0
2018-Jul-15 08:30N 40°46' W 074°01'0 0.0
2018-Jul-14 18:30N 40°46' W 074°01'4 8.3
2018-Jul-14 18:00N 40°42' W 074°00'0 0.8
2018-Jul-14 17:30N 40°42' W 073°60'4 7.4
2018-Jul-14 17:00N 40°39' W 074°02'2 4.4
2018-Jul-14 16:30N 40°41' W 074°01'1 2.6
2018-Jul-14 16:00N 40°42' W 074°00'1 2.5
2018-Jul-14 15:30N 40°41' W 074°01'1 1.4
2018-Jul-14 15:01N 40°40' W 074°01'2 3.8
2018-Jul-14 14:30N 40°42' W 074°00'4 4.0
2018-Jul-14 13:30N 40°39' W 074°02'3 6.8
2018-Jul-14 13:01N 40°42' W 074°00'1 1.5
2018-Jul-14 12:31N 40°42' W 073°60'4 8.5
2018-Jul-14 12:00N 40°38' W 074°02'4 7.1
2018-Jul-14 11:31N 40°42' W 074°00'0 0.0
2018-Jul-14 11:00N 40°42' W 074°00'1 2.9
2018-Jul-14 10:30N 40°40' W 074°01'  
2018-Jul-12 00:29N 40°47' W 074°01'1 1.7
2018-Jul-12 00:00N 40°46' W 074°00'0 0.1
2018-Jul-11 23:21N 40°46' W 074°00'3 6.5
2018-Jul-11 22:50N 40°49' W 073°59'2 5.9
2018-Jul-11 22:30N 40°47' W 073°60'1 2.4
2018-Jul-11 21:58N 40°46' W 074°00'1 0.0
2018-Jul-09 20:14N 40°46' W 074°01'0 0.0
2018-Jul-09 02:44N 40°46' W 074°01'419.7
2018-Jul-09 02:31N 40°42' W 074°01'2 4.1
2018-Jul-09 02:00N 40°40' W 074°01'2 4.7
2018-Jul-09 01:30N 40°42' W 074°00'1 2.7
2018-Jul-09 01:01N 40°41' W 074°01'1 2.9
2018-Jul-09 00:30N 40°40' W 074°02'3 5.3
2018-Jul-09 00:00N 40°42' W 074°00'3 6.6
2018-Jul-08 23:30N 40°39' W 074°02'4 7.4
2018-Jul-08 23:01N 40°42' W 073°60'0 0.2
2018-Jul-08 22:31N 40°42' W 073°60'4 8.1
2018-Jul-08 22:00N 40°39' W 074°02'3 5.8
2018-Jul-08 21:30N 40°41' W 074°01'1 1.5
2018-Jul-08 20:52N 40°42' W 074°00'1 3.7
2018-Jul-08 20:30N 40°41' W 074°01'1 2.6
2018-Jul-08 20:00N 40°40' W 074°01'3 5.2
2018-Jul-08 19:29N 40°42' W 074°00'1 1.4
2018-Jul-08 19:00N 40°42' W 074°00'4 7.1
2018-Jul-08 18:30N 40°38' W 074°02'4 8.0
2018-Jul-08 17:58N 40°42' W 073°60'0 0.2
2018-Jul-08 17:25N 40°42' W 073°60'4 8.6
2018-Jul-08 17:00N 40°39' W 074°02'2 4.5
2018-Jul-08 16:30N 40°41' W 074°01'1 2.6
2018-Jul-08 16:00N 40°42' W 074°00'1 2.5
2018-Jul-08 15:30N 40°41' W 074°01'2 3.2
2018-Jul-08 15:00N 40°39' W 074°01'3 5.6
2018-Jul-08 14:30N 40°42' W 074°00'0 0.8
2018-Jul-08 14:00N 40°42' W 073°60'4 8.5
2018-Jul-08 13:30N 40°38' W 074°02'4 6.8
2018-Jul-08 12:59N 40°42' W 074°00'1 1.4
2018-Jul-08 12:29N 40°42' W 073°60'4 8.7
2018-Jul-08 12:00N 40°38' W 074°02'4 7.3
2018-Jul-08 11:29N 40°42' W 074°00'0 0.0
2018-Jul-08 11:00N 40°42' W 074°00'2 4.1
2018-Jul-08 10:30N 40°40' W 074°01'6 0.8
2018-Jul-08 02:48N 40°46' W 074°01'414.7
2018-Jul-08 02:31N 40°42' W 074°00'2 4.5
2018-Jul-08 02:00N 40°40' W 074°01'2 4.7
2018-Jul-08 01:30N 40°42' W 074°00'1 2.7
2018-Jul-08 01:00N 40°41' W 074°01'1 3.0
2018-Jul-08 00:30N 40°40' W 074°02'2 4.9
2018-Jul-08 00:00N 40°42' W 074°00'4 7.4
2018-Jul-07 23:30N 40°38' W 074°02'4 8.2
2018-Jul-07 23:00N 40°42' W 073°60'0 0.3
2018-Jul-07 22:29N 40°42' W 073°60'4 7.6
2018-Jul-07 22:00N 40°39' W 074°02'2 4.3
2018-Jul-07 21:30N 40°41' W 074°01'1 2.7
2018-Jul-07 21:00N 40°42' W 074°00'1 2.6
2018-Jul-07 20:30N 40°41' W 074°01'1 1.5
2018-Jul-07 20:01N 40°40' W 074°01'2 4.1
2018-Jul-07 19:30N 40°42' W 074°00'1 1.2
2018-Jul-07 19:01N 40°42' W 074°00'4 7.1
2018-Jul-07 18:31N 40°38' W 074°02'4 8.5
2018-Jul-07 18:00N 40°42' W 073°60'0 0.9
2018-Jul-07 17:30N 40°42' W 074°00'4 7.0
2018-Jul-07 17:00N 40°39' W 074°02'3 6.0
2018-Jul-07 16:30N 40°42' W 074°00'1 1.3
2018-Jul-07 16:01N 40°42' W 074°00'2 3.5
2018-Jul-07 15:30N 40°41' W 074°01'1 2.6
2018-Jul-07 15:01N 40°39' W 074°02'3 6.1
2018-Jul-07 14:31N 40°42' W 074°00'0 0.7
2018-Jul-07 14:00N 40°42' W 073°60'4 8.3
2018-Jul-07 13:30N 40°38' W 074°02'3 7.0
2018-Jul-07 13:01N 40°42' W 074°00'1 1.4
2018-Jul-07 12:31N 40°42' W 073°60'4 8.4
2018-Jul-07 12:00N 40°38' W 074°02'4 7.1
2018-Jul-07 11:30N 40°42' W 074°00'0 0.1
2018-Jul-07 11:00N 40°42' W 074°00'3 5.9
2018-Jul-07 10:31N 40°39' W 074°02'714.6
2018-Jul-07 10:00N 40°46' W 074°01'0 0.0
2018-Jul-06 23:07N 40°46' W 074°01'0 0.1
2018-Jul-06 22:59N 40°46' W 074°01'0 0.1
2018-Jul-06 22:30N 40°46' W 074°01'3 7.0
2018-Jul-06 22:01N 40°43' W 074°01'1 2.6
2018-Jul-06 21:31N 40°44' W 074°02'0 1.0
2018-Jul-06 21:00N 40°44' W 074°01'3 4.3
2018-Jul-06 20:24N 40°46' W 074°01'0 0.0
2018-Jul-06 19:59N 40°46' W 074°01'0 0.0
2018-Jul-06 14:10N 40°46' W 074°01'  
Track history (hours):
 
Tides and Currents Weather Stations Pressure Air Temp Water Temp Dewpoint Dewpoint Depression Visibility Wind Speed Wind Dir Waves Ship Positions

Yogi Berra

Owner: PORT IMPERIAL FERRY, WEEHAWKEN, NJ. More information available from US FCC via Universal Licensing System and Coast Guard Vessel Documentation Center.

Last reported at 2018-Jul-16 14:09 UTC. Time now 2018-Jul-20 01:00 UTC.
Position N 40°46' W 074°01'.

Length 25 m; draft 2 m.

Type: Passenger vessel. MMSI: 367434220.

Date/timePositionNaut miles runAvg speedWind from/ knotsBaromVisibWave heightAir tempDewpointWater temp
2018-Jul-16 14:09N 40°46' W 074°01'1 0.1
2018-Jul-16 02:40N 40°45' W 074°01'319.0
2018-Jul-16 02:30N 40°42' W 074°01'2 3.9
2018-Jul-16 02:00N 40°40' W 074°01'2 4.6
2018-Jul-16 01:30N 40°42' W 074°00'1 2.7
2018-Jul-16 01:00N 40°41' W 074°01'1 1.7
2018-Jul-16 00:12N 40°42' W 074°00'0 2.2
2018-Jul-16 00:01N 40°42' W 074°00'4 7.4
2018-Jul-15 23:30N 40°38' W 074°02'4 8.0
2018-Jul-15 23:00N 40°42' W 074°00'0 0.3
2018-Jul-15 22:30N 40°42' W 073°60'4 7.1
2018-Jul-15 22:00N 40°39' W 074°02'2 4.5
2018-Jul-15 21:30N 40°41' W 074°01'1 2.2
2018-Jul-15 20:52N 40°42' W 073°60'2 4.2
2018-Jul-15 20:30N 40°41' W 074°01'1 2.3
2018-Jul-15 20:00N 40°40' W 074°01'3 4.8
2018-Jul-15 19:29N 40°42' W 074°00'1 1.4
2018-Jul-15 19:00N 40°42' W 074°00'3 6.6
2018-Jul-15 18:30N 40°39' W 074°02'4 8.2
2018-Jul-15 18:00N 40°42' W 073°60'0 0.6
2018-Jul-15 17:30N 40°42' W 074°00'4 7.1
2018-Jul-15 17:00N 40°39' W 074°02'2 4.2
2018-Jul-15 16:30N 40°41' W 074°01'1 2.8
2018-Jul-15 16:00N 40°42' W 074°00'1 2.7
2018-Jul-15 15:29N 40°41' W 074°01'0 1.0
2018-Jul-15 15:00N 40°41' W 074°01'2 3.6
2018-Jul-15 14:30N 40°42' W 074°00'1 1.1
2018-Jul-15 13:57N 40°42' W 074°00'4 7.9
2018-Jul-15 13:30N 40°38' W 074°02'4 7.1
2018-Jul-15 13:00N 40°42' W 074°00'0 1.0
2018-Jul-15 12:30N 40°42' W 074°00'4 8.0
2018-Jul-15 12:00N 40°38' W 074°02'4 7.3
2018-Jul-15 11:30N 40°42' W 074°00'1 1.0
2018-Jul-15 11:00N 40°41' W 074°01'3 6.4
2018-Jul-15 10:30N 40°38' W 074°02'815.9
2018-Jul-15 10:00N 40°46' W 074°01'0 0.0
2018-Jul-15 09:30N 40°46' W 074°01'0 0.0
2018-Jul-15 09:00N 40°46' W 074°01'0 0.0
2018-Jul-15 08:30N 40°46' W 074°01'0 0.0
2018-Jul-14 18:30N 40°46' W 074°01'4 8.3
2018-Jul-14 18:00N 40°42' W 074°00'0 0.8
2018-Jul-14 17:30N 40°42' W 073°60'4 7.4
2018-Jul-14 17:00N 40°39' W 074°02'2 4.4
2018-Jul-14 16:30N 40°41' W 074°01'1 2.6
2018-Jul-14 16:00N 40°42' W 074°00'1 2.5
2018-Jul-14 15:30N 40°41' W 074°01'1 1.4
2018-Jul-14 15:01N 40°40' W 074°01'2 3.8
2018-Jul-14 14:30N 40°42' W 074°00'4 4.0
2018-Jul-14 13:30N 40°39' W 074°02'3 6.8
2018-Jul-14 13:01N 40°42' W 074°00'1 1.5
2018-Jul-14 12:31N 40°42' W 073°60'4 8.5
2018-Jul-14 12:00N 40°38' W 074°02'4 7.1
2018-Jul-14 11:31N 40°42' W 074°00'0 0.0
2018-Jul-14 11:00N 40°42' W 074°00'1 2.9
2018-Jul-14 10:30N 40°40' W 074°01'  
2018-Jul-12 00:29N 40°47' W 074°01'1 1.7
2018-Jul-12 00:00N 40°46' W 074°00'0 0.1
2018-Jul-11 23:21N 40°46' W 074°00'3 6.5
2018-Jul-11 22:50N 40°49' W 073°59'2 5.9
2018-Jul-11 22:30N 40°47' W 073°60'1 2.4
2018-Jul-11 21:58N 40°46' W 074°00'1 0.0
2018-Jul-09 20:14N 40°46' W 074°01'0 0.0
2018-Jul-09 02:44N 40°46' W 074°01'419.7
2018-Jul-09 02:31N 40°42' W 074°01'2 4.1
2018-Jul-09 02:00N 40°40' W 074°01'2 4.7
2018-Jul-09 01:30N 40°42' W 074°00'1 2.7
2018-Jul-09 01:01N 40°41' W 074°01'1 2.9
2018-Jul-09 00:30N 40°40' W 074°02'3 5.3
2018-Jul-09 00:00N 40°42' W 074°00'3 6.6
2018-Jul-08 23:30N 40°39' W 074°02'4 7.4
2018-Jul-08 23:01N 40°42' W 073°60'0 0.2
2018-Jul-08 22:31N 40°42' W 073°60'4 8.1
2018-Jul-08 22:00N 40°39' W 074°02'3 5.8
2018-Jul-08 21:30N 40°41' W 074°01'1 1.5
2018-Jul-08 20:52N 40°42' W 074°00'1 3.7
2018-Jul-08 20:30N 40°41' W 074°01'1 2.6
2018-Jul-08 20:00N 40°40' W 074°01'3 5.2
2018-Jul-08 19:29N 40°42' W 074°00'1 1.4
2018-Jul-08 19:00N 40°42' W 074°00'4 7.1
2018-Jul-08 18:30N 40°38' W 074°02'4 8.0
2018-Jul-08 17:58N 40°42' W 073°60'0 0.2
2018-Jul-08 17:25N 40°42' W 073°60'4 8.6
2018-Jul-08 17:00N 40°39' W 074°02'2 4.5
2018-Jul-08 16:30N 40°41' W 074°01'1 2.6
2018-Jul-08 16:00N 40°42' W 074°00'1 2.5
2018-Jul-08 15:30N 40°41' W 074°01'2 3.2
2018-Jul-08 15:00N 40°39' W 074°01'3 5.6
2018-Jul-08 14:30N 40°42' W 074°00'0 0.8
2018-Jul-08 14:00N 40°42' W 073°60'4 8.5
2018-Jul-08 13:30N 40°38' W 074°02'4 6.8
2018-Jul-08 12:59N 40°42' W 074°00'1 1.4
2018-Jul-08 12:29N 40°42' W 073°60'4 8.7
2018-Jul-08 12:00N 40°38' W 074°02'4 7.3
2018-Jul-08 11:29N 40°42' W 074°00'0 0.0
2018-Jul-08 11:00N 40°42' W 074°00'2 4.1
2018-Jul-08 10:30N 40°40' W 074°01'6 0.8
2018-Jul-08 02:48N 40°46' W 074°01'414.7
2018-Jul-08 02:31N 40°42' W 074°00'2 4.5
2018-Jul-08 02:00N 40°40' W 074°01'2 4.7
2018-Jul-08 01:30N 40°42' W 074°00'1 2.7
2018-Jul-08 01:00N 40°41' W 074°01'1 3.0
2018-Jul-08 00:30N 40°40' W 074°02'2 4.9
2018-Jul-08 00:00N 40°42' W 074°00'4 7.4
2018-Jul-07 23:30N 40°38' W 074°02'4 8.2
2018-Jul-07 23:00N 40°42' W 073°60'0 0.3
2018-Jul-07 22:29N 40°42' W 073°60'4 7.6
2018-Jul-07 22:00N 40°39' W 074°02'2 4.3
2018-Jul-07 21:30N 40°41' W 074°01'1 2.7
2018-Jul-07 21:00N 40°42' W 074°00'1 2.6
2018-Jul-07 20:30N 40°41' W 074°01'1 1.5
2018-Jul-07 20:01N 40°40' W 074°01'2 4.1
2018-Jul-07 19:30N 40°42' W 074°00'1 1.2
2018-Jul-07 19:01N 40°42' W 074°00'4 7.1
2018-Jul-07 18:31N 40°38' W 074°02'4 8.5
2018-Jul-07 18:00N 40°42' W 073°60'0 0.9
2018-Jul-07 17:30N 40°42' W 074°00'4 7.0
2018-Jul-07 17:00N 40°39' W 074°02'3 6.0
2018-Jul-07 16:30N 40°42' W 074°00'1 1.3
2018-Jul-07 16:01N 40°42' W 074°00'2 3.5
2018-Jul-07 15:30N 40°41' W 074°01'1 2.6
2018-Jul-07 15:01N 40°39' W 074°02'3 6.1
2018-Jul-07 14:31N 40°42' W 074°00'0 0.7
2018-Jul-07 14:00N 40°42' W 073°60'4 8.3
2018-Jul-07 13:30N 40°38' W 074°02'3 7.0
2018-Jul-07 13:01N 40°42' W 074°00'1 1.4
2018-Jul-07 12:31N 40°42' W 073°60'4 8.4
2018-Jul-07 12:00N 40°38' W 074°02'4 7.1
2018-Jul-07 11:30N 40°42' W 074°00'0 0.1
2018-Jul-07 11:00N 40°42' W 074°00'3 5.9
2018-Jul-07 10:31N 40°39' W 074°02'714.6
2018-Jul-07 10:00N 40°46' W 074°01'0 0.0
2018-Jul-06 23:07N 40°46' W 074°01'0 0.1
2018-Jul-06 22:59N 40°46' W 074°01'0 0.1
2018-Jul-06 22:30N 40°46' W 074°01'3 7.0
2018-Jul-06 22:01N 40°43' W 074°01'1 2.6
2018-Jul-06 21:31N 40°44' W 074°02'0 1.0
2018-Jul-06 21:00N 40°44' W 074°01'3 4.3
2018-Jul-06 20:24N 40°46' W 074°01'0 0.0
2018-Jul-06 19:59N 40°46' W 074°01'0 0.0
2018-Jul-06 14:10N 40°46' W 074°01'  

Dump ship's entire track history